<?xml version='1.0' encoding='UTF-8'?><gpx version="1.1" creator="JPX - https://github.com/jenetics/jpx" xmlns="http://www.topografix.com/GPX/1/1"><trk><trkseg><trkpt lat="45.19736947072838" lon="8.004916677833519"><ele>172.0</ele><time>2026-03-24T17:51:35Z</time></trkpt><trkpt lat="45.19735644737124" lon="8.004822218296015"><ele>172.0</ele><time>2026-03-24T17:51:38Z</time></trkpt><trkpt lat="45.197336116529776" lon="8.00472511563928"><ele>172.0</ele><time>2026-03-24T17:51:41Z</time></trkpt><trkpt lat="45.19730349753467" lon="8.004625883686339"><ele>172.0</ele><time>2026-03-24T17:51:44Z</time></trkpt><trkpt lat="45.197288858043734" lon="8.004527199339908"><ele>172.0</ele><time>2026-03-24T17:51:46Z</time></trkpt><trkpt lat="45.197256770953544" lon="8.00440294762363"><ele>172.0</ele><time>2026-03-24T17:51:49Z</time></trkpt><trkpt lat="45.19724565923797" lon="8.004304334198919"><ele>172.0</ele><time>2026-03-24T17:51:51Z</time></trkpt><trkpt lat="45.197228330878445" lon="8.004210338292593"><ele>172.0</ele><time>2026-03-24T17:51:54Z</time></trkpt><trkpt lat="45.1972126210074" lon="8.004104256900213"><ele>172.0</ele><time>2026-03-24T17:51:56Z</time></trkpt><trkpt lat="45.19718883115943" lon="8.004001916100865"><ele>172.0</ele><time>2026-03-24T17:51:58Z</time></trkpt><trkpt lat="45.197157495126476" lon="8.003871509323961"><ele>172.0</ele><time>2026-03-24T17:52:01Z</time></trkpt><trkpt lat="45.19714281173472" lon="8.00378358572024"><ele>172.0</ele><time>2026-03-24T17:52:03Z</time></trkpt><trkpt lat="45.197118792486364" lon="8.003658126158424"><ele>172.0</ele><time>2026-03-24T17:52:05.999Z</time></trkpt><trkpt lat="45.19710016141966" lon="8.003560954831773"><ele>172.0</ele><time>2026-03-24T17:52:07.999Z</time></trkpt><trkpt lat="45.19707805720328" lon="8.003443154727362"><ele>172.0</ele><time>2026-03-24T17:52:10.999Z</time></trkpt><trkpt lat="45.197061540967134" lon="8.003327092523747"><ele>172.0</ele><time>2026-03-24T17:52:13.999Z</time></trkpt><trkpt lat="45.197033155214115" lon="8.003208682895504"><ele>172.0</ele><time>2026-03-24T17:52:16.999Z</time></trkpt><trkpt lat="45.19701094752664" lon="8.003088257666631"><ele>172.0</ele><time>2026-03-24T17:52:19.999Z</time></trkpt><trkpt lat="45.1969982615495" lon="8.002992731338283"><ele>172.14285714285717</ele><time>2026-03-24T17:52:21.999Z</time></trkpt><trkpt lat="45.1969839385908" lon="8.002896680346753"><ele>172.28571428571428</ele><time>2026-03-24T17:52:23.999Z</time></trkpt><trkpt lat="45.196957874894856" lon="8.002797421232906"><ele>172.42857142857144</ele><time>2026-03-24T17:52:25.999Z</time></trkpt><trkpt lat="45.19694322984391" lon="8.002697847336425"><ele>172.57142857142858</ele><time>2026-03-24T17:52:27.999Z</time></trkpt><trkpt lat="45.19692689435636" lon="8.00260787143412"><ele>172.71428571428572</ele><time>2026-03-24T17:52:29.999Z</time></trkpt><trkpt lat="45.19690809161406" lon="8.002519938127573"><ele>172.85714285714286</ele><time>2026-03-24T17:52:31.999Z</time></trkpt><trkpt lat="45.19688100421697" lon="8.002397299057357"><ele>173.0</ele><time>2026-03-24T17:52:34.999Z</time></trkpt><trkpt lat="45.19685673031597" lon="8.002285233006942"><ele>173.16666666666666</ele><time>2026-03-24T17:52:37.999Z</time></trkpt><trkpt lat="45.196829569525875" lon="8.002170391328999"><ele>173.33333333333331</ele><time>2026-03-24T17:52:40.999Z</time></trkpt><trkpt lat="45.19682027068746" lon="8.002076028577395"><ele>173.5</ele><time>2026-03-24T17:52:42.999Z</time></trkpt><trkpt lat="45.196805944706966" lon="8.001969117194415"><ele>173.66666666666666</ele><time>2026-03-24T17:52:45.999Z</time></trkpt><trkpt lat="45.19677847500823" lon="8.001883909125668"><ele>173.83333333333334</ele><time>2026-03-24T17:52:47.999Z</time></trkpt><trkpt lat="45.196763739160204" lon="8.001758590565487"><ele>174.0</ele><time>2026-03-24T17:52:50.999Z</time></trkpt><trkpt lat="45.1967353725374" lon="8.00163370383537"><ele>174.0</ele><time>2026-03-24T17:52:53.999Z</time></trkpt><trkpt lat="45.19670435208059" lon="8.001506205693468"><ele>174.0</ele><time>2026-03-24T17:52:56.999Z</time></trkpt><trkpt lat="45.196674693886486" lon="8.001394778830687"><ele>174.0</ele><time>2026-03-24T17:52:59.999Z</time></trkpt><trkpt lat="45.196654374540365" lon="8.001277331866648"><ele>174.0</ele><time>2026-03-24T17:53:02.999Z</time></trkpt><trkpt lat="45.19663326977384" lon="8.001184641430374"><ele>174.0</ele><time>2026-03-24T17:53:04.999Z</time></trkpt><trkpt lat="45.19660906494838" lon="8.001065216502479"><ele>174.0</ele><time>2026-03-24T17:53:07.999Z</time></trkpt><trkpt lat="45.19657961391496" lon="8.000951817742036"><ele>174.0</ele><time>2026-03-24T17:53:10.999Z</time></trkpt><trkpt lat="45.19653864707717" lon="8.000883177770376"><ele>174.0</ele><time>2026-03-24T17:53:12.999Z</time></trkpt><trkpt lat="45.196548301910234" lon="8.000788952686126"><ele>174.0</ele><time>2026-03-24T17:53:14.999Z</time></trkpt><trkpt lat="45.19653213066314" lon="8.000690314298254"><ele>174.0</ele><time>2026-03-24T17:53:16.999Z</time></trkpt><trkpt lat="45.19650295287875" lon="8.000587321467437"><ele>174.0</ele><time>2026-03-24T17:53:18.999Z</time></trkpt><trkpt lat="45.19648854653693" lon="8.000481563951626"><ele>174.0</ele><time>2026-03-24T17:53:22Z</time></trkpt><trkpt lat="45.19647430044073" lon="8.000389211101028"><ele>174.0</ele><time>2026-03-24T17:53:25Z</time></trkpt><trkpt lat="45.19645586907754" lon="8.000279158138323"><ele>173.83333333333334</ele><time>2026-03-24T17:53:27Z</time></trkpt><trkpt lat="45.19643105141353" lon="8.000196633998"><ele>173.66666666666666</ele><time>2026-03-24T17:53:29Z</time></trkpt><trkpt lat="45.19640070206459" lon="8.000105621106178"><ele>173.5</ele><time>2026-03-24T17:53:31Z</time></trkpt><trkpt lat="45.196386452130454" lon="7.99997884207637"><ele>173.33333333333331</ele><time>2026-03-24T17:53:34Z</time></trkpt><trkpt lat="45.19636387626233" lon="7.999843648019976"><ele>173.16666666666666</ele><time>2026-03-24T17:53:37Z</time></trkpt><trkpt lat="45.19633657558367" lon="7.99973225251345"><ele>173.0</ele><time>2026-03-24T17:53:40Z</time></trkpt><trkpt lat="45.19632279709599" lon="7.999640920849593"><ele>173.0</ele><time>2026-03-24T17:53:42Z</time></trkpt><trkpt lat="45.19630088583898" lon="7.999554510116252"><ele>173.0</ele><time>2026-03-24T17:53:44Z</time></trkpt><trkpt lat="45.196288206870456" lon="7.999464804747055"><ele>173.0</ele><time>2026-03-24T17:53:46Z</time></trkpt><trkpt lat="45.19626665147608" lon="7.9993680761237185"><ele>173.0</ele><time>2026-03-24T17:53:48Z</time></trkpt><trkpt lat="45.19625133299623" lon="7.999254713782041"><ele>173.0</ele><time>2026-03-24T17:53:50Z</time></trkpt><trkpt lat="45.196228828807214" lon="7.999137795337315"><ele>173.0</ele><time>2026-03-24T17:53:53Z</time></trkpt><trkpt lat="45.19621906000866" lon="7.99904310285413"><ele>173.0</ele><time>2026-03-24T17:53:55Z</time></trkpt><trkpt lat="45.19619526022834" lon="7.998949679755274"><ele>172.83333333333331</ele><time>2026-03-24T17:53:57Z</time></trkpt><trkpt lat="45.19617673682563" lon="7.99885801845291"><ele>172.66666666666666</ele><time>2026-03-24T17:53:59Z</time></trkpt><trkpt lat="45.196156921536144" lon="7.9987697090364"><ele>172.5</ele><time>2026-03-24T17:54:01Z</time></trkpt><trkpt lat="45.19613882551496" lon="7.998670805023598"><ele>172.33333333333334</ele><time>2026-03-24T17:54:03Z</time></trkpt><trkpt lat="45.19613480966987" lon="7.998519357712063"><ele>172.16666666666669</ele><time>2026-03-24T17:54:05Z</time></trkpt><trkpt lat="45.19609300276805" lon="7.99841282009258"><ele>172.0</ele><time>2026-03-24T17:54:08Z</time></trkpt><trkpt lat="45.196076036724484" lon="7.998324290489832"><ele>172.0</ele><time>2026-03-24T17:54:10Z</time></trkpt><trkpt lat="45.19605710167889" lon="7.998229515626606"><ele>172.0</ele><time>2026-03-24T17:54:12Z</time></trkpt><trkpt lat="45.19602512031981" lon="7.998106111161903"><ele>172.0</ele><time>2026-03-24T17:54:15Z</time></trkpt><trkpt lat="45.196005193526396" lon="7.998009987362418"><ele>172.0</ele><time>2026-03-24T17:54:17Z</time></trkpt><trkpt lat="45.19598550367707" lon="7.997921249778159"><ele>172.0</ele><time>2026-03-24T17:54:18.999Z</time></trkpt><trkpt lat="45.195955135568475" lon="7.997779679254341"><ele>172.0</ele><time>2026-03-24T17:54:21.999Z</time></trkpt><trkpt lat="45.19593923719667" lon="7.997687996171441"><ele>172.0</ele><time>2026-03-24T17:54:23.999Z</time></trkpt><trkpt lat="45.195919567420646" lon="7.997588315734242"><ele>172.0</ele><time>2026-03-24T17:54:25.999Z</time></trkpt><trkpt lat="45.19587869514487" lon="7.997459496772586"><ele>172.0</ele><time>2026-03-24T17:54:28.999Z</time></trkpt><trkpt lat="45.19586160518363" lon="7.997357746863345"><ele>172.0</ele><time>2026-03-24T17:54:30.999Z</time></trkpt><trkpt lat="45.19584906351685" lon="7.997247824998136"><ele>172.0</ele><time>2026-03-24T17:54:32.999Z</time></trkpt><trkpt lat="45.19581945995759" lon="7.997142579288547"><ele>172.0</ele><time>2026-03-24T17:54:34.999Z</time></trkpt><trkpt lat="45.1958072293802" lon="7.9970357932607055"><ele>172.16666666666669</ele><time>2026-03-24T17:54:36.999Z</time></trkpt><trkpt lat="45.1957861445181" lon="7.99689975332703"><ele>172.33333333333334</ele><time>2026-03-24T17:54:39.999Z</time></trkpt><trkpt lat="45.195765078396775" lon="7.996792465249897"><ele>172.5</ele><time>2026-03-24T17:54:41.999Z</time></trkpt><trkpt lat="45.19573868389289" lon="7.996691180205121"><ele>172.66666666666666</ele><time>2026-03-24T17:54:43.999Z</time></trkpt><trkpt lat="45.195717331569504" lon="7.99658454381988"><ele>172.83333333333331</ele><time>2026-03-24T17:54:45.999Z</time></trkpt><trkpt lat="45.195690283180795" lon="7.996472147870525"><ele>173.0</ele><time>2026-03-24T17:54:47.999Z</time></trkpt><trkpt lat="45.195684413706424" lon="7.996370100230126"><ele>173.0</ele><time>2026-03-24T17:54:49.999Z</time></trkpt><trkpt lat="45.195657519139615" lon="7.996273586351616"><ele>173.0</ele><time>2026-03-24T17:54:51.999Z</time></trkpt><trkpt lat="45.195639069052646" lon="7.99616513030127"><ele>173.0</ele><time>2026-03-24T17:54:53.999Z</time></trkpt><trkpt lat="45.19561573948203" lon="7.996054383882804"><ele>173.0</ele><time>2026-03-24T17:54:55.999Z</time></trkpt><trkpt lat="45.19559287377296" lon="7.995949692028938"><ele>173.0</ele><time>2026-03-24T17:54:57.999Z</time></trkpt><trkpt lat="45.195569097632415" lon="7.995837435887146"><ele>173.0</ele><time>2026-03-24T17:54:59.999Z</time></trkpt><trkpt lat="45.195550061627614" lon="7.995735530722628"><ele>173.0</ele><time>2026-03-24T17:55:01.999Z</time></trkpt><trkpt lat="45.19553143075322" lon="7.995622893441107"><ele>173.0</ele><time>2026-03-24T17:55:03.999Z</time></trkpt><trkpt lat="45.19551120339064" lon="7.995528724506071"><ele>173.0</ele><time>2026-03-24T17:55:05.999Z</time></trkpt><trkpt lat="45.195495255249725" lon="7.9954363489010625"><ele>173.0</ele><time>2026-03-24T17:55:07.999Z</time></trkpt><trkpt lat="45.19547459086244" lon="7.995350572195318"><ele>173.0</ele><time>2026-03-24T17:55:09.999Z</time></trkpt><trkpt lat="45.19545837480992" lon="7.995261976982414"><ele>173.0</ele><time>2026-03-24T17:55:11.999Z</time></trkpt><trkpt lat="45.1954393732639" lon="7.995169508842196"><ele>173.0</ele><time>2026-03-24T17:55:13.999Z</time></trkpt><trkpt lat="45.19541888242176" lon="7.9950713616358575"><ele>172.66666666666666</ele><time>2026-03-24T17:55:16.999Z</time></trkpt><trkpt lat="45.195390395255835" lon="7.994973913820792"><ele>172.33333333333331</ele><time>2026-03-24T17:55:20.999Z</time></trkpt><trkpt lat="45.19536962974278" lon="7.994872748822961"><ele>172.0</ele><time>2026-03-24T17:55:24.999Z</time></trkpt><trkpt lat="45.19533881858911" lon="7.994776854281284"><ele>171.66666666666666</ele><time>2026-03-24T17:55:30Z</time></trkpt><trkpt lat="45.19532327044284" lon="7.994632065104769"><ele>171.33333333333334</ele><time>2026-03-24T17:55:35Z</time></trkpt><trkpt lat="45.19530944526986" lon="7.994527806661139"><ele>171.0</ele><time>2026-03-24T17:55:38Z</time></trkpt><trkpt lat="45.195289173821685" lon="7.994440968963287"><ele>171.0</ele><time>2026-03-24T17:55:41Z</time></trkpt><trkpt lat="45.19527125623771" lon="7.994328474656691"><ele>171.0</ele><time>2026-03-24T17:55:44Z</time></trkpt><trkpt lat="45.19525388692187" lon="7.994205762060329"><ele>171.0</ele><time>2026-03-24T17:55:47Z</time></trkpt><trkpt lat="45.19522621885813" lon="7.994092693940134"><ele>171.0</ele><time>2026-03-24T17:55:50Z</time></trkpt><trkpt lat="45.19520568801029" lon="7.994004421964336"><ele>171.0</ele><time>2026-03-24T17:55:52Z</time></trkpt><trkpt lat="45.195191906014486" lon="7.993887632902714"><ele>171.0</ele><time>2026-03-24T17:55:55Z</time></trkpt><trkpt lat="45.19516980954053" lon="7.993767808015637"><ele>171.0</ele><time>2026-03-24T17:55:58Z</time></trkpt><trkpt lat="45.195151086452725" lon="7.993636175695625"><ele>171.0</ele><time>2026-03-24T17:56:01Z</time></trkpt><trkpt lat="45.19513882307238" lon="7.993516263101245"><ele>171.0</ele><time>2026-03-24T17:56:04Z</time></trkpt><trkpt lat="45.19512448186443" lon="7.993395875159541"><ele>171.0</ele><time>2026-03-24T17:56:07Z</time></trkpt><trkpt lat="45.19510443687348" lon="7.993273848046503"><ele>171.0</ele><time>2026-03-24T17:56:10Z</time></trkpt><trkpt lat="45.195093588465745" lon="7.993140833750114"><ele>171.0</ele><time>2026-03-24T17:56:13Z</time></trkpt><trkpt lat="45.19508066777991" lon="7.992994652854675"><ele>170.83333333333334</ele><time>2026-03-24T17:56:16Z</time></trkpt><trkpt lat="45.19508931712827" lon="7.992887489930351"><ele>170.66666666666666</ele><time>2026-03-24T17:56:18Z</time></trkpt><trkpt lat="45.195042934835364" lon="7.992805036458137"><ele>170.5</ele><time>2026-03-24T17:56:20.999Z</time></trkpt><trkpt lat="45.195056671964416" lon="7.992694256507361"><ele>170.33333333333331</ele><time>2026-03-24T17:56:22.999Z</time></trkpt><trkpt lat="45.19504406831142" lon="7.992567528727645"><ele>170.16666666666666</ele><time>2026-03-24T17:56:25.999Z</time></trkpt><trkpt lat="45.195034308263615" lon="7.992469359517093"><ele>170.0</ele><time>2026-03-24T17:56:27.999Z</time></trkpt><trkpt lat="45.19502455196023" lon="7.992341258680001"><ele>170.33333333333331</ele><time>2026-03-24T17:56:30.999Z</time></trkpt><trkpt lat="45.195013930099414" lon="7.992211659174346"><ele>170.66666666666666</ele><time>2026-03-24T17:56:33.999Z</time></trkpt><trkpt lat="45.19500979666983" lon="7.992102094126474"><ele>171.0</ele><time>2026-03-24T17:56:36.999Z</time></trkpt><trkpt lat="45.195001890367024" lon="7.99201239712695"><ele>171.33333333333334</ele><time>2026-03-24T17:56:38.999Z</time></trkpt><trkpt lat="45.19498360756593" lon="7.991888689116244"><ele>171.66666666666669</ele><time>2026-03-24T17:56:41.999Z</time></trkpt><trkpt lat="45.194974102269924" lon="7.991766096656178"><ele>172.0</ele><time>2026-03-24T17:56:44.999Z</time></trkpt><trkpt lat="45.194963702546005" lon="7.991641963161166"><ele>172.0</ele><time>2026-03-24T17:56:47.999Z</time></trkpt><trkpt lat="45.19495977824954" lon="7.99150772898116"><ele>172.0</ele><time>2026-03-24T17:56:51.999Z</time></trkpt><trkpt lat="45.19495232090217" lon="7.991411924905834"><ele>172.0</ele><time>2026-03-24T17:56:54.999Z</time></trkpt><trkpt lat="45.19494586791388" lon="7.991284740959361"><ele>172.0</ele><time>2026-03-24T17:56:58.999Z</time></trkpt><trkpt lat="45.19493578664736" lon="7.991167203136374"><ele>172.0</ele><time>2026-03-24T17:57:01.999Z</time></trkpt><trkpt lat="45.194923906020065" lon="7.99104999396894"><ele>172.0</ele><time>2026-03-24T17:57:04.999Z</time></trkpt><trkpt lat="45.19490950871095" lon="7.990911037089186"><ele>172.16666666666669</ele><time>2026-03-24T17:57:07.999Z</time></trkpt><trkpt lat="45.194897126354626" lon="7.9908159910899546"><ele>172.33333333333334</ele><time>2026-03-24T17:57:10.999Z</time></trkpt><trkpt lat="45.19488823857581" lon="7.990713466879894"><ele>172.5</ele><time>2026-03-24T17:57:12.999Z</time></trkpt><trkpt lat="45.194871551572845" lon="7.990598889569147"><ele>172.66666666666666</ele><time>2026-03-24T17:57:15.999Z</time></trkpt><trkpt lat="45.19486878688867" lon="7.990490945725683"><ele>172.83333333333331</ele><time>2026-03-24T17:57:18.999Z</time></trkpt><trkpt lat="45.19485962342286" lon="7.990390739681148"><ele>173.0</ele><time>2026-03-24T17:57:20.999Z</time></trkpt><trkpt lat="45.194847728061106" lon="7.990268015411745"><ele>173.0</ele><time>2026-03-24T17:57:23.999Z</time></trkpt><trkpt lat="45.194841379485545" lon="7.990163912221672"><ele>173.0</ele><time>2026-03-24T17:57:25.999Z</time></trkpt><trkpt lat="45.19483072857754" lon="7.990057503039869"><ele>173.0</ele><time>2026-03-24T17:57:28.999Z</time></trkpt><trkpt lat="45.19482744027112" lon="7.989966739897876"><ele>173.0</ele><time>2026-03-24T17:57:30.999Z</time></trkpt><trkpt lat="45.19481977919056" lon="7.98985989098421"><ele>173.0</ele><time>2026-03-24T17:57:34Z</time></trkpt><trkpt lat="45.19480556964355" lon="7.989740594732502"><ele>173.0</ele><time>2026-03-24T17:57:37Z</time></trkpt><trkpt lat="45.19479681524431" lon="7.989619987980567"><ele>172.57142857142856</ele><time>2026-03-24T17:57:40Z</time></trkpt><trkpt lat="45.19478643552334" lon="7.989517841465814"><ele>172.14285714285717</ele><time>2026-03-24T17:57:42Z</time></trkpt><trkpt lat="45.1947717793854" lon="7.989403770502037"><ele>171.71428571428572</ele><time>2026-03-24T17:57:45Z</time></trkpt><trkpt lat="45.19475976261209" lon="7.9892704569696855"><ele>171.28571428571428</ele><time>2026-03-24T17:57:48Z</time></trkpt><trkpt lat="45.19475869599238" lon="7.989175056463311"><ele>170.85714285714283</ele><time>2026-03-24T17:57:50Z</time></trkpt><trkpt lat="45.19474462597124" lon="7.989087859130981"><ele>170.42857142857144</ele><time>2026-03-24T17:57:52Z</time></trkpt><trkpt lat="45.19473432981092" lon="7.988994341292195"><ele>170.0</ele><time>2026-03-24T17:57:53Z</time></trkpt><trkpt lat="45.1947255421523" lon="7.988903528873734"><ele>170.0</ele><time>2026-03-24T17:57:54Z</time></trkpt><trkpt lat="45.1947177474657" lon="7.988774150494723"><ele>170.0</ele><time>2026-03-24T17:57:55Z</time></trkpt><trkpt lat="45.194704071994465" lon="7.988650687012398"><ele>170.0</ele><time>2026-03-24T17:57:57Z</time></trkpt><trkpt lat="45.19468913093233" lon="7.988516520740074"><ele>170.0</ele><time>2026-03-24T17:57:59Z</time></trkpt><trkpt lat="45.19466715583399" lon="7.98840204081727"><ele>170.0</ele><time>2026-03-24T17:58:01Z</time></trkpt><trkpt lat="45.19464633687218" lon="7.988280447569497"><ele>170.0</ele><time>2026-03-24T17:58:03Z</time></trkpt><trkpt lat="45.194644735810805" lon="7.988109358158883"><ele>170.33333333333331</ele><time>2026-03-24T17:58:05Z</time></trkpt><trkpt lat="45.19464248982708" lon="7.988013714577883"><ele>170.66666666666666</ele><time>2026-03-24T17:58:06Z</time></trkpt><trkpt lat="45.19464660204342" lon="7.98787962911525"><ele>171.0</ele><time>2026-03-24T17:58:08Z</time></trkpt><trkpt lat="45.1946355528402" lon="7.987768002980531"><ele>171.33333333333334</ele><time>2026-03-24T17:58:10Z</time></trkpt><trkpt lat="45.19463032483071" lon="7.987642927297292"><ele>171.66666666666669</ele><time>2026-03-24T17:58:28Z</time></trkpt><trkpt lat="45.19461953468743" lon="7.987546648437244"><ele>172.0</ele><time>2026-03-24T17:58:29.999Z</time></trkpt><trkpt lat="45.19461010736765" lon="7.987457282990493"><ele>172.0</ele><time>2026-03-24T17:58:31.999Z</time></trkpt><trkpt lat="45.19460344027128" lon="7.98736098970811"><ele>172.0</ele><time>2026-03-24T17:58:33.999Z</time></trkpt><trkpt lat="45.19459160681803" lon="7.987232967925866"><ele>172.0</ele><time>2026-03-24T17:58:36.999Z</time></trkpt><trkpt lat="45.19457901098329" lon="7.987111197518714"><ele>172.0</ele><time>2026-03-24T17:58:39.999Z</time></trkpt><trkpt lat="45.194568285874674" lon="7.9870020965450905"><ele>172.0</ele><time>2026-03-24T17:58:42.999Z</time></trkpt><trkpt lat="45.19456130422346" lon="7.986860267264975"><ele>172.0</ele><time>2026-03-24T17:58:45.999Z</time></trkpt><trkpt lat="45.19454591279818" lon="7.986754285889214"><ele>172.2857142857143</ele><time>2026-03-24T17:58:48.999Z</time></trkpt><trkpt lat="45.194539124045505" lon="7.986658927937781"><ele>172.57142857142858</ele><time>2026-03-24T17:58:50.999Z</time></trkpt><trkpt lat="45.19453137996212" lon="7.98656942145691"><ele>172.85714285714286</ele><time>2026-03-24T17:58:52.999Z</time></trkpt><trkpt lat="45.19452034937223" lon="7.986475587433178"><ele>173.14285714285717</ele><time>2026-03-24T17:58:54.999Z</time></trkpt><trkpt lat="45.194517852714306" lon="7.986373651775999"><ele>173.42857142857144</ele><time>2026-03-24T17:58:56.999Z</time></trkpt><trkpt lat="45.194502931313856" lon="7.986238762702131"><ele>173.71428571428572</ele><time>2026-03-24T17:58:59.999Z</time></trkpt><trkpt lat="45.19448834700239" lon="7.986146178520578"><ele>174.0</ele><time>2026-03-24T17:59:01.999Z</time></trkpt><trkpt lat="45.194475967320905" lon="7.986053923292127"><ele>174.0</ele><time>2026-03-24T17:59:03.999Z</time></trkpt><trkpt lat="45.194468221222046" lon="7.985958276845892"><ele>174.0</ele><time>2026-03-24T17:59:05.999Z</time></trkpt><trkpt lat="45.19445794619646" lon="7.985866384080253"><ele>174.0</ele><time>2026-03-24T17:59:07.999Z</time></trkpt><trkpt lat="45.19444615176935" lon="7.985733037090718"><ele>174.0</ele><time>2026-03-24T17:59:10.999Z</time></trkpt><trkpt lat="45.19443195169963" lon="7.985602639687912"><ele>174.0</ele><time>2026-03-24T17:59:13.999Z</time></trkpt><trkpt lat="45.194420555801656" lon="7.985512448823708"><ele>174.0</ele><time>2026-03-24T17:59:15.999Z</time></trkpt><trkpt lat="45.194418485805954" lon="7.985414196576262"><ele>174.0</ele><time>2026-03-24T17:59:17.999Z</time></trkpt><trkpt lat="45.19440983034811" lon="7.98531452953629"><ele>174.0</ele><time>2026-03-24T17:59:19.999Z</time></trkpt><trkpt lat="45.194379763279166" lon="7.985187620806429"><ele>174.0</ele><time>2026-03-24T17:59:22.999Z</time></trkpt><trkpt lat="45.19438739883009" lon="7.985088626843582"><ele>174.0</ele><time>2026-03-24T17:59:24.999Z</time></trkpt><trkpt lat="45.19438450281013" lon="7.984973565293421"><ele>174.0</ele><time>2026-03-24T17:59:27.999Z</time></trkpt><trkpt lat="45.194366025656755" lon="7.9848647211574075"><ele>174.0</ele><time>2026-03-24T17:59:29.999Z</time></trkpt><trkpt lat="45.1943567373954" lon="7.9847675184137605"><ele>174.0</ele><time>2026-03-24T17:59:31.999Z</time></trkpt><trkpt lat="45.194358866691616" lon="7.984668354143817"><ele>174.0</ele><time>2026-03-24T17:59:33.999Z</time></trkpt><trkpt lat="45.19432969610632" lon="7.984569108820131"><ele>174.0</ele><time>2026-03-24T17:59:35.999Z</time></trkpt><trkpt lat="45.19433669409569" lon="7.984456784966191"><ele>174.0</ele><time>2026-03-24T17:59:37.999Z</time></trkpt><trkpt lat="45.19433173172106" lon="7.9843141837465375"><ele>174.0</ele><time>2026-03-24T17:59:41Z</time></trkpt><trkpt lat="45.19430446853551" lon="7.984226400003632"><ele>174.0</ele><time>2026-03-24T17:59:43Z</time></trkpt><trkpt lat="45.194309002866774" lon="7.984124037834919"><ele>174.0</ele><time>2026-03-24T17:59:45Z</time></trkpt><trkpt lat="45.194293359132466" lon="7.984029633796901"><ele>174.0</ele><time>2026-03-24T17:59:47Z</time></trkpt><trkpt lat="45.19426126938621" lon="7.983909893917006"><ele>174.0</ele><time>2026-03-24T17:59:50Z</time></trkpt><trkpt lat="45.19426020931822" lon="7.983802746866434"><ele>174.0</ele><time>2026-03-24T17:59:53Z</time></trkpt><trkpt lat="45.19425932356993" lon="7.983711592518457"><ele>174.0</ele><time>2026-03-24T17:59:55Z</time></trkpt><trkpt lat="45.19424501071093" lon="7.9835875853331"><ele>174.0</ele><time>2026-03-24T17:59:58Z</time></trkpt><trkpt lat="45.194230722844026" lon="7.983462263975989"><ele>173.79999999999998</ele><time>2026-03-24T18:00:01Z</time></trkpt><trkpt lat="45.19421308496666" lon="7.98333418039385"><ele>173.6</ele><time>2026-03-24T18:00:04Z</time></trkpt><trkpt lat="45.1942062431796" lon="7.9832018476482585"><ele>173.4</ele><time>2026-03-24T18:00:07Z</time></trkpt><trkpt lat="45.19419245208108" lon="7.983072546876907"><ele>173.2</ele><time>2026-03-24T18:00:10Z</time></trkpt><trkpt lat="45.194172520460334" lon="7.982952651195788"><ele>173.0</ele><time>2026-03-24T18:00:13Z</time></trkpt><trkpt lat="45.19416839058371" lon="7.982825938155077"><ele>173.0</ele><time>2026-03-24T18:00:16Z</time></trkpt><trkpt lat="45.194175677271176" lon="7.982733696186041"><ele>173.0</ele><time>2026-03-24T18:00:18Z</time></trkpt><trkpt lat="45.19415716085194" lon="7.982605213019019"><ele>173.0</ele><time>2026-03-24T18:00:21Z</time></trkpt><trkpt lat="45.194145484222084" lon="7.982513548340182"><ele>173.0</ele><time>2026-03-24T18:00:23Z</time></trkpt><trkpt lat="45.19414052205672" lon="7.9824209305239835"><ele>173.0</ele><time>2026-03-24T18:00:25Z</time></trkpt><trkpt lat="45.19413136795338" lon="7.982327476533956"><ele>173.0</ele><time>2026-03-24T18:00:27Z</time></trkpt><trkpt lat="45.194117322013255" lon="7.9822385661082675"><ele>173.0</ele><time>2026-03-24T18:00:29Z</time></trkpt><trkpt lat="45.194111532131295" lon="7.982143951384579"><ele>173.16666666666666</ele><time>2026-03-24T18:00:31Z</time></trkpt><trkpt lat="45.19409921219661" lon="7.9820515754971675"><ele>173.33333333333331</ele><time>2026-03-24T18:00:32.999Z</time></trkpt><trkpt lat="45.194102149574356" lon="7.981954749995717"><ele>173.5</ele><time>2026-03-24T18:00:34.999Z</time></trkpt><trkpt lat="45.19408502698268" lon="7.981824436874781"><ele>173.66666666666666</ele><time>2026-03-24T18:00:37.999Z</time></trkpt><trkpt lat="45.19408456822286" lon="7.981722614912826"><ele>173.83333333333334</ele><time>2026-03-24T18:00:39.999Z</time></trkpt><trkpt lat="45.19406875263938" lon="7.981583916740946"><ele>174.0</ele><time>2026-03-24T18:00:42.999Z</time></trkpt><trkpt lat="45.19405615172651" lon="7.981482445498697"><ele>174.33333333333334</ele><time>2026-03-24T18:00:44.999Z</time></trkpt><trkpt lat="45.19404785732481" lon="7.981390359982403"><ele>174.66666666666666</ele><time>2026-03-24T18:00:46.999Z</time></trkpt><trkpt lat="45.19402960773627" lon="7.981272263225187"><ele>175.0</ele><time>2026-03-24T18:00:49.999Z</time></trkpt><trkpt lat="45.1940197064904" lon="7.981150565380777"><ele>175.33333333333331</ele><time>2026-03-24T18:00:51.999Z</time></trkpt><trkpt lat="45.19401348844648" lon="7.981043151821014"><ele>175.66666666666666</ele><time>2026-03-24T18:00:53.999Z</time></trkpt><trkpt lat="45.19400716271741" lon="7.9809381654383715"><ele>176.0</ele><time>2026-03-24T18:00:55.999Z</time></trkpt><trkpt lat="45.19399220122794" lon="7.98083368740704"><ele>175.0</ele><time>2026-03-24T18:00:57.999Z</time></trkpt><trkpt lat="45.1939838842246" lon="7.980742561340686"><ele>174.0</ele><time>2026-03-24T18:00:59.999Z</time></trkpt><trkpt lat="45.193969604322426" lon="7.980646265951222"><ele>173.0</ele><time>2026-03-24T18:01:01.999Z</time></trkpt><trkpt lat="45.19395963434939" lon="7.9805465369252975"><ele>172.0</ele><time>2026-03-24T18:01:03.999Z</time></trkpt><trkpt lat="45.19395297378188" lon="7.980438894741649"><ele>171.0</ele><time>2026-03-24T18:01:05.999Z</time></trkpt><trkpt lat="45.19394530324262" lon="7.980336095599553"><ele>170.0</ele><time>2026-03-24T18:01:07.999Z</time></trkpt><trkpt lat="45.19393007499017" lon="7.980199941789496"><ele>170.0</ele><time>2026-03-24T18:01:10.999Z</time></trkpt><trkpt lat="45.19392149196354" lon="7.980107210530892"><ele>170.0</ele><time>2026-03-24T18:01:12.999Z</time></trkpt><trkpt lat="45.19390701007379" lon="7.980011728811642"><ele>170.0</ele><time>2026-03-24T18:01:14.999Z</time></trkpt><trkpt lat="45.193901247197864" lon="7.9799166251169975"><ele>170.0</ele><time>2026-03-24T18:01:16.999Z</time></trkpt><trkpt lat="45.19388975243663" lon="7.979819450309463"><ele>170.0</ele><time>2026-03-24T18:01:18.999Z</time></trkpt><trkpt lat="45.193876902068645" lon="7.979721005066778"><ele>170.0</ele><time>2026-03-24T18:01:20.999Z</time></trkpt><trkpt lat="45.193867527866296" lon="7.979616139240481"><ele>170.0</ele><time>2026-03-24T18:01:22.999Z</time></trkpt><trkpt lat="45.19386230581199" lon="7.979513242241295"><ele>170.5</ele><time>2026-03-24T18:01:24.999Z</time></trkpt><trkpt lat="45.19384595981309" lon="7.979413805341466"><ele>171.0</ele><time>2026-03-24T18:01:26.999Z</time></trkpt><trkpt lat="45.19384120410796" lon="7.979289960524267"><ele>171.5</ele><time>2026-03-24T18:01:29.999Z</time></trkpt><trkpt lat="45.19382586338081" lon="7.979175219508822"><ele>172.0</ele><time>2026-03-24T18:01:31.999Z</time></trkpt><trkpt lat="45.19382182803533" lon="7.979052380065703"><ele>172.5</ele><time>2026-03-24T18:01:34.999Z</time></trkpt><trkpt lat="45.193834477713196" lon="7.978933304308769"><ele>173.0</ele><time>2026-03-24T18:01:36.999Z</time></trkpt><trkpt lat="45.193816547385175" lon="7.978821629688182"><ele>173.14285714285714</ele><time>2026-03-24T18:01:39.999Z</time></trkpt><trkpt lat="45.19381107249586" lon="7.978729329775993"><ele>173.2857142857143</ele><time>2026-03-24T18:01:41.999Z</time></trkpt><trkpt lat="45.193794785007725" lon="7.978627631296787"><ele>173.42857142857144</ele><time>2026-03-24T18:01:43.999Z</time></trkpt><trkpt lat="45.19378178915225" lon="7.978530707326507"><ele>173.57142857142856</ele><time>2026-03-24T18:01:46Z</time></trkpt><trkpt lat="45.193771332946575" lon="7.978433079680007"><ele>173.71428571428572</ele><time>2026-03-24T18:01:48Z</time></trkpt><trkpt lat="45.1937751596998" lon="7.978319220984326"><ele>173.85714285714286</ele><time>2026-03-24T18:01:51Z</time></trkpt><trkpt lat="45.19375438192893" lon="7.978214172355819"><ele>174.0</ele><time>2026-03-24T18:01:53Z</time></trkpt><trkpt lat="45.19373149576626" lon="7.978125125475967"><ele>174.0</ele><time>2026-03-24T18:01:55Z</time></trkpt><trkpt lat="45.19372824682477" lon="7.978017119873909"><ele>174.0</ele><time>2026-03-24T18:01:57Z</time></trkpt><trkpt lat="45.19371912526106" lon="7.977915757116769"><ele>174.0</ele><time>2026-03-24T18:01:59Z</time></trkpt><trkpt lat="45.193705993162894" lon="7.977803582396044"><ele>174.0</ele><time>2026-03-24T18:02:02Z</time></trkpt><trkpt lat="45.19369863052718" lon="7.977677588516397"><ele>174.0</ele><time>2026-03-24T18:02:05Z</time></trkpt><trkpt lat="45.193674929451944" lon="7.977575078422683"><ele>174.0</ele><time>2026-03-24T18:02:08Z</time></trkpt><trkpt lat="45.19367843126943" lon="7.977478649853576"><ele>174.0</ele><time>2026-03-24T18:02:10Z</time></trkpt><trkpt lat="45.193662369578284" lon="7.977358984926635"><ele>174.0</ele><time>2026-03-24T18:02:13Z</time></trkpt><trkpt lat="45.19364423736987" lon="7.977238230636801"><ele>174.0</ele><time>2026-03-24T18:02:16Z</time></trkpt><trkpt lat="45.193636678888936" lon="7.97711692498691"><ele>174.0</ele><time>2026-03-24T18:02:19Z</time></trkpt><trkpt lat="45.19362031723823" lon="7.976991161302218"><ele>174.0</ele><time>2026-03-24T18:02:22Z</time></trkpt><trkpt lat="45.19361681969769" lon="7.976860645038595"><ele>174.0</ele><time>2026-03-24T18:02:25Z</time></trkpt><trkpt lat="45.193606075479764" lon="7.976732192117328"><ele>173.83333333333334</ele><time>2026-03-24T18:02:28Z</time></trkpt><trkpt lat="45.19359542926309" lon="7.976600190010496"><ele>173.66666666666666</ele><time>2026-03-24T18:02:31Z</time></trkpt><trkpt lat="45.19358487759989" lon="7.976512112215484"><ele>173.5</ele><time>2026-03-24T18:02:33Z</time></trkpt><trkpt lat="45.19357484265784" lon="7.9763839770814"><ele>173.33333333333331</ele><time>2026-03-24T18:02:36Z</time></trkpt><trkpt lat="45.19356929353946" lon="7.976251106101788"><ele>173.16666666666666</ele><time>2026-03-24T18:02:39Z</time></trkpt><trkpt lat="45.193570696003356" lon="7.976157872765304"><ele>173.0</ele><time>2026-03-24T18:02:41Z</time></trkpt><trkpt lat="45.19357216885723" lon="7.976061458163878"><ele>173.0</ele><time>2026-03-24T18:02:43Z</time></trkpt><trkpt lat="45.193570257738855" lon="7.975960745114104"><ele>173.0</ele><time>2026-03-24T18:02:45Z</time></trkpt><trkpt lat="45.19357908613763" lon="7.975849282456244"><ele>173.0</ele><time>2026-03-24T18:02:46.999Z</time></trkpt><trkpt lat="45.193582888335754" lon="7.97574168505473"><ele>173.0</ele><time>2026-03-24T18:02:48.999Z</time></trkpt><trkpt lat="45.1935852645904" lon="7.975634121627195"><ele>173.0</ele><time>2026-03-24T18:02:50.999Z</time></trkpt><trkpt lat="45.19358655463413" lon="7.975536450427808"><ele>173.0</ele><time>2026-03-24T18:02:52.999Z</time></trkpt><trkpt lat="45.19359970120389" lon="7.975438973191662"><ele>173.0</ele><time>2026-03-24T18:02:54.999Z</time></trkpt><trkpt lat="45.19360625843968" lon="7.975341545898769"><ele>173.16666666666666</ele><time>2026-03-24T18:02:56.999Z</time></trkpt><trkpt lat="45.193629124853345" lon="7.975235719950129"><ele>173.33333333333331</ele><time>2026-03-24T18:02:59.999Z</time></trkpt><trkpt lat="45.193634836459466" lon="7.9751293901559315"><ele>173.5</ele><time>2026-03-24T18:03:01.999Z</time></trkpt><trkpt lat="45.1936475595415" lon="7.974999729771854"><ele>173.66666666666666</ele><time>2026-03-24T18:03:04.999Z</time></trkpt><trkpt lat="45.19365980829871" lon="7.974908879426204"><ele>173.83333333333334</ele><time>2026-03-24T18:03:06.999Z</time></trkpt><trkpt lat="45.1936728423055" lon="7.974805619535565"><ele>174.0</ele><time>2026-03-24T18:03:08.999Z</time></trkpt><trkpt lat="45.193690375447765" lon="7.974672022339258"><ele>174.0</ele><time>2026-03-24T18:03:11.999Z</time></trkpt><trkpt lat="45.19369154162833" lon="7.9745696980254515"><ele>174.0</ele><time>2026-03-24T18:03:13.999Z</time></trkpt><trkpt lat="45.19371139438783" lon="7.974438958443921"><ele>174.0</ele><time>2026-03-24T18:03:16.999Z</time></trkpt><trkpt lat="45.19372195168782" lon="7.974336956859886"><ele>174.0</ele><time>2026-03-24T18:03:18.999Z</time></trkpt><trkpt lat="45.19374239199125" lon="7.97419113820645"><ele>174.0</ele><time>2026-03-24T18:03:21.999Z</time></trkpt><trkpt lat="45.193765282027925" lon="7.9740619524700085"><ele>174.0</ele><time>2026-03-24T18:03:23.999Z</time></trkpt><trkpt lat="45.193794446209985" lon="7.973948522929488"><ele>173.83333333333334</ele><time>2026-03-24T18:03:26.999Z</time></trkpt><trkpt lat="45.19380786209389" lon="7.973853094485211"><ele>173.66666666666666</ele><time>2026-03-24T18:03:28.999Z</time></trkpt><trkpt lat="45.1938328781115" lon="7.973745911703264"><ele>173.5</ele><time>2026-03-24T18:03:31.999Z</time></trkpt><trkpt lat="45.19386116313263" lon="7.973619771553037"><ele>173.33333333333331</ele><time>2026-03-24T18:03:34.999Z</time></trkpt><trkpt lat="45.19387680030869" lon="7.9735285426835105"><ele>173.16666666666666</ele><time>2026-03-24T18:03:36.999Z</time></trkpt><trkpt lat="45.19390099445343" lon="7.973418086370145"><ele>173.0</ele><time>2026-03-24T18:03:38.999Z</time></trkpt><trkpt lat="45.193913855829074" lon="7.973290268776907"><ele>173.0</ele><time>2026-03-24T18:03:41.999Z</time></trkpt><trkpt lat="45.19393226004528" lon="7.9731688558569145"><ele>173.0</ele><time>2026-03-24T18:03:44.999Z</time></trkpt><trkpt lat="45.19395115593725" lon="7.973064114327597"><ele>173.0</ele><time>2026-03-24T18:03:47.999Z</time></trkpt><trkpt lat="45.19397008211" lon="7.972978328595111"><ele>173.0</ele><time>2026-03-24T18:03:50.999Z</time></trkpt><trkpt lat="45.19399100190273" lon="7.972871469096797"><ele>173.0</ele><time>2026-03-24T18:03:54.999Z</time></trkpt><trkpt lat="45.194010093234695" lon="7.972784179308905"><ele>173.0</ele><time>2026-03-24T18:03:58.999Z</time></trkpt><trkpt lat="45.19403404228976" lon="7.972693222411409"><ele>173.0</ele><time>2026-03-24T18:04:05Z</time></trkpt><trkpt lat="45.19405064878965" lon="7.972587806633779"><ele>173.5</ele><time>2026-03-24T18:07:14.999Z</time></trkpt><trkpt lat="45.19406837897196" lon="7.972482830055452"><ele>174.0</ele><time>2026-03-24T18:07:18.999Z</time></trkpt><trkpt lat="45.19408139202944" lon="7.972379383804073"><ele>174.5</ele><time>2026-03-24T18:07:22.999Z</time></trkpt><trkpt lat="45.194073197292454" lon="7.9722675471947735"><ele>175.0</ele><time>2026-03-24T18:07:25.999Z</time></trkpt><trkpt lat="45.19410544312831" lon="7.972168895384935"><ele>175.5</ele><time>2026-03-24T18:07:30.999Z</time></trkpt><trkpt lat="45.19411595330973" lon="7.9720630959106815"><ele>176.0</ele><time>2026-03-24T18:07:34.999Z</time></trkpt><trkpt lat="45.19413888965126" lon="7.971961030720504"><ele>176.0</ele><time>2026-03-24T18:07:38.999Z</time></trkpt><trkpt lat="45.19415868365199" lon="7.971854238121935"><ele>176.0</ele><time>2026-03-24T18:07:42.999Z</time></trkpt></trkseg></trk></gpx>